Monteview, Idaho
Current Conditions -  °F | °C
As of 7:53 AM on Tuesday 21 Oct 2014 (Local Time) from KRXE Reporting Station
Overcast Overcast  
Wind Chill: 51°   Ceiling: 9000
Heat Index: 51°   Visibility: 10mi
Dew Point: 42°   Wind: 15mph
Humidity: 71%   Direction: 220°SW
Pressure: 29.87"   Gusts: 21mph
Location:  43.94°N, 112.54°W
Report Text: KRXE 211353Z AUTO 22013G18KT 10SM SCT070 BKN090 OVC110 11/06 A2987 RMK AO2 RAE1256B41E49 PRESRR SLP090 P0000 T01060056
Loading
Personal Weather Stations






























Interactive Weather Map
Tropical Storm Tracking
New forecast layout! Learn more

10-Day Weather Forecast

Advertisements
Track Severe Weather on mobile